Choctaw Beach, Florida
Current Conditions -  °F | °C
As of 6:55 PM on Tuesday 21 Oct 2014 (Local Time) from KVPS Reporting Station
Few Clouds Few Clouds  
Wind Chill: 69°   Ceiling: Unl
Heat Index: 69°   Visibility: 10mi
Dew Point: 58°   Wind: 2mph
Humidity: 66%   Direction: 290°WNW
Pressure: 29.95"   Gusts: NA
Location:  30.5136°N, 86.4378°W
Report Text: KVPS 212355Z 29002KT 10SM FEW250 21/14 A2995 RMK AO2A FU NE SLP148 T02070142 10283 20207 53003 $
Loading
Personal Weather Stations






























Interactive Weather Map
Tropical Storm Tracking
New forecast layout! Learn more

10-Day Weather Forecast

Advertisements
Track Severe Weather on mobile